createdAt,value
2018-08-18T00:00:34.965Z,70.47
2018-08-18T00:03:03.841Z,70.63
2018-08-18T00:05:32.731Z,70.42
2018-08-18T00:08:01.628Z,70.65
2018-08-18T00:10:30.559Z,70.48
2018-08-18T00:12:59.474Z,70.39
2018-08-18T00:15:28.325Z,69.59
2018-08-18T00:17:57.189Z,70.00
2018-08-18T00:20:26.157Z,70.18
2018-08-18T00:22:55.030Z,70.58
2018-08-18T00:25:24.004Z,70.51
2018-08-18T00:27:53.052Z,70.64
2018-08-18T00:30:28.768Z,70.90
2018-08-18T00:32:57.624Z,70.37
2018-08-18T00:35:26.570Z,69.79
2018-08-18T00:37:55.415Z,69.51
2018-08-18T00:40:24.268Z,69.77
2018-08-18T00:42:53.128Z,70.00
2018-08-18T00:45:22.000Z,69.85
2018-08-18T00:47:51.503Z,69.90
2018-08-18T00:50:40.747Z,69.92
2018-08-18T00:53:10.689Z,69.63
2018-08-18T00:55:39.525Z,69.14
2018-08-18T00:58:32.470Z,68.87
2018-08-18T01:01:05.089Z,68.72
2018-08-18T01:03:55.721Z,68.17
2018-08-18T01:06:29.020Z,67.90
2018-08-18T01:08:59.142Z,68.29
2018-08-18T01:11:28.322Z,68.46
2018-08-18T01:13:58.071Z,69.07
2018-08-18T01:16:26.882Z,69.42
2018-08-18T01:18:55.775Z,69.46
2018-08-18T01:21:25.419Z,69.51
2018-08-18T01:23:54.420Z,69.59
2018-08-18T01:26:23.263Z,69.92
2018-08-18T01:28:52.128Z,70.63
2018-08-18T01:31:22.747Z,69.98
2018-08-18T01:33:51.606Z,70.13
2018-08-18T01:36:20.473Z,70.21
2018-08-18T01:38:49.311Z,70.49
2018-08-18T01:41:25.374Z,70.27
2018-08-18T01:44:29.129Z,70.55
2018-08-18T01:46:58.027Z,70.19
2018-08-18T01:49:30.745Z,70.47
2018-08-18T01:52:01.389Z,70.59
2018-08-18T01:54:30.445Z,70.93
2018-08-18T01:57:09.075Z,70.88
2018-08-18T01:59:44.618Z,71.25
2018-08-18T02:02:24.984Z,71.55
2018-08-18T02:04:54.279Z,71.51
2018-08-18T02:07:25.524Z,71.37
2018-08-18T02:09:54.855Z,71.60
2018-08-18T02:12:24.145Z,71.63
2018-08-18T02:14:53.337Z,71.45
2018-08-18T02:17:33.211Z,71.82
2018-08-18T02:20:02.220Z,71.63
2018-08-18T02:22:31.888Z,71.50
2018-08-18T02:25:00.765Z,71.29
2018-08-18T02:27:29.622Z,71.25
2018-08-18T02:30:12.423Z,71.24
2018-08-18T02:32:41.347Z,71.41
2018-08-18T02:35:10.218Z,71.66
2018-08-18T02:37:39.078Z,71.65
2018-08-18T02:40:12.834Z,71.66
2018-08-18T02:42:41.597Z,71.63
2018-08-18T02:45:11.269Z,71.55
2018-08-18T02:47:40.163Z,71.56
2018-08-18T02:50:10.386Z,71.75
2018-08-18T02:52:39.353Z,71.81
2018-08-18T02:55:09.912Z,71.93
2018-08-18T02:57:47.772Z,71.98
2018-08-18T03:00:37.450Z,72.21
2018-08-18T03:03:06.337Z,72.00
2018-08-18T03:05:35.210Z,71.80
2018-08-18T03:08:04.085Z,71.80
2018-08-18T03:10:33.374Z,71.55
2018-08-18T03:13:02.230Z,71.47
2018-08-18T03:15:53.714Z,71.69
2018-08-18T03:18:44.966Z,72.05
2018-08-18T03:21:13.839Z,72.13
2018-08-18T03:24:11.247Z,72.09
2018-08-18T03:26:47.358Z,72.63
2018-08-18T03:29:16.812Z,73.10
2018-08-18T03:31:46.195Z,73.28
2018-08-18T03:34:15.365Z,73.69
2018-08-18T03:36:46.058Z,73.47
2018-08-18T03:39:34.046Z,73.62
2018-08-18T03:42:04.052Z,73.01
2018-08-18T03:44:35.287Z,73.18
2018-08-18T03:47:04.160Z,73.21
2018-08-18T03:49:33.052Z,73.26
2018-08-18T03:52:01.969Z,73.35
2018-08-18T03:54:30.843Z,72.76
2018-08-18T03:56:59.738Z,73.34
2018-08-18T03:59:28.632Z,73.36
2018-08-18T04:02:01.040Z,73.58
2018-08-18T04:04:38.603Z,73.67
2018-08-18T04:07:08.951Z,73.90
2018-08-18T04:09:38.857Z,73.93
2018-08-18T04:12:11.153Z,73.96
2018-08-18T04:14:41.201Z,74.43
2018-08-18T04:17:31.138Z,74.93
2018-08-18T04:20:00.019Z,75.29
2018-08-18T04:22:28.901Z,75.79
2018-08-18T04:24:57.782Z,76.48
2018-08-18T04:27:45.671Z,76.74
2018-08-18T04:30:17.347Z,76.80
2018-08-18T04:33:04.926Z,77.12
2018-08-18T04:35:34.244Z,77.33
2018-08-18T04:38:03.892Z,77.38
2018-08-18T04:40:34.191Z,77.11
2018-08-18T04:43:03.031Z,76.90
2018-08-18T04:45:31.902Z,77.19
2018-08-18T04:48:00.824Z,77.22
2018-08-18T04:50:29.728Z,77.54
2018-08-18T04:52:58.599Z,77.70
2018-08-18T04:55:27.446Z,77.89
2018-08-18T04:57:56.288Z,77.67
2018-08-18T05:00:27.661Z,77.35
2018-08-18T05:03:00.280Z,77.10
2018-08-18T05:05:30.456Z,77.69
2018-08-18T05:08:00.246Z,77.23
2018-08-18T05:10:29.368Z,77.18
2018-08-18T05:12:58.304Z,77.21
2018-08-18T05:15:27.200Z,76.97
2018-08-18T05:17:56.090Z,77.19
2018-08-18T05:20:26.264Z,77.12
2018-08-18T05:22:56.809Z,77.01
2018-08-18T05:25:41.249Z,77.37
2018-08-18T05:28:10.179Z,77.09
2018-08-18T05:30:39.046Z,76.71
2018-08-18T05:33:08.291Z,76.54
2018-08-18T05:35:37.156Z,77.03
2018-08-18T05:38:06.001Z,76.74
2018-08-18T05:40:35.134Z,77.07
2018-08-18T05:43:04.292Z,77.13
2018-08-18T05:45:33.936Z,75.59
2018-08-18T05:48:02.836Z,74.76
2018-08-18T05:50:31.738Z,73.59
2018-08-18T05:53:27.426Z,74.98
2018-08-18T05:55:56.531Z,73.21
2018-08-18T05:58:25.419Z,74.25
2018-08-18T06:01:22.679Z,74.10
2018-08-18T06:03:58.699Z,73.91
2018-08-18T06:06:27.537Z,74.32
2018-08-18T06:08:56.380Z,74.11
2018-08-18T06:11:25.243Z,73.81
2018-08-18T06:13:54.117Z,73.67
2018-08-18T06:16:23.007Z,73.85
2018-08-18T06:18:51.888Z,73.46
2018-08-18T06:21:20.761Z,72.74
2018-08-18T06:23:49.629Z,72.18
2018-08-18T06:26:18.529Z,71.78
2018-08-18T06:28:47.410Z,71.90
2018-08-18T06:31:16.277Z,71.83
2018-08-18T06:33:45.104Z,72.15
2018-08-18T06:36:13.984Z,72.39
2018-08-18T06:38:42.821Z,72.34
2018-08-18T06:41:11.822Z,72.24
2018-08-18T06:43:40.502Z,72.05
2018-08-18T06:46:09.353Z,70.68
2018-08-18T06:48:38.841Z,69.66
2018-08-18T06:51:07.909Z,68.24
2018-08-18T06:53:44.095Z,67.66
2018-08-18T06:56:13.035Z,67.58
2018-08-18T06:58:41.915Z,67.78
2018-08-18T07:01:11.182Z,67.85
2018-08-18T07:03:47.461Z,67.62
2018-08-18T07:06:17.452Z,66.15
2018-08-18T07:08:55.750Z,60.17
2018-08-18T07:11:24.598Z,53.16
2018-08-18T07:13:53.462Z,48.14
2018-08-18T07:16:22.353Z,45.41
2018-08-18T07:18:51.187Z,42.01
2018-08-18T07:21:20.028Z,41.96
2018-08-18T07:23:48.894Z,38.46
2018-08-18T07:26:17.722Z,38.35
2018-08-18T07:28:46.725Z,38.90
2018-08-18T07:31:15.409Z,38.87
2018-08-18T07:33:44.266Z,38.46
2018-08-18T07:36:13.183Z,38.43
2018-08-18T07:38:42.059Z,38.57
2018-08-18T07:41:10.876Z,36.46
2018-08-18T07:43:39.729Z,35.65
2018-08-18T07:46:09.042Z,38.34
2018-08-18T07:48:37.906Z,37.09
2018-08-18T07:51:06.752Z,35.83
2018-08-18T07:53:35.642Z,36.15
2018-08-18T07:56:04.437Z,35.63
2018-08-18T07:58:33.276Z,34.32
2018-08-18T08:01:02.154Z,32.35
2018-08-18T08:03:30.990Z,34.67
2018-08-18T08:05:59.847Z,33.69
2018-08-18T08:08:49.951Z,31.76
2018-08-18T08:11:18.792Z,31.64
2018-08-18T08:13:47.659Z,31.33
2018-08-18T08:16:16.532Z,29.64
2018-08-18T08:18:45.383Z,32.16
2018-08-18T08:21:14.263Z,31.78
2018-08-18T08:23:43.140Z,31.94
2018-08-18T08:26:12.386Z,32.29
2018-08-18T08:28:41.250Z,32.08
2018-08-18T08:31:10.081Z,31.46
2018-08-18T08:33:39.567Z,30.55
2018-08-18T08:36:17.666Z,29.46
2018-08-18T08:38:58.797Z,28.47
2018-08-18T08:41:29.485Z,26.85
2018-08-18T08:43:58.371Z,29.16
2018-08-18T08:46:27.237Z,28.76
2018-08-18T08:48:58.545Z,30.94
2018-08-18T08:51:27.493Z,29.08
2018-08-18T08:53:57.536Z,29.51
2018-08-18T08:56:41.260Z,29.32
2018-08-18T08:59:10.098Z,29.48
2018-08-18T09:01:38.932Z,31.99
2018-08-18T09:04:07.792Z,30.22
2018-08-18T09:06:42.466Z,29.71
2018-08-18T09:09:11.333Z,30.64
2018-08-18T09:11:40.232Z,30.42
2018-08-18T09:14:09.092Z,29.59
2018-08-18T09:16:37.952Z,30.80
2018-08-18T09:19:06.803Z,27.83
2018-08-18T09:21:55.198Z,29.50
2018-08-18T09:24:25.617Z,28.92
2018-08-18T09:27:04.136Z,31.39
2018-08-18T09:29:45.832Z,32.33
2018-08-18T09:32:15.323Z,32.06
2018-08-18T09:34:53.722Z,32.32
2018-08-18T09:37:22.949Z,31.52
2018-08-18T09:39:51.781Z,30.28
2018-08-18T09:42:21.052Z,30.19
2018-08-18T09:44:53.808Z,30.33
2018-08-18T09:47:22.739Z,27.90
2018-08-18T09:49:51.589Z,30.02
2018-08-18T09:52:20.753Z,29.39
2018-08-18T09:54:49.619Z,28.33
2018-08-18T09:57:18.476Z,28.11
2018-08-18T09:59:47.347Z,27.27
2018-08-18T10:02:16.196Z,29.78
2018-08-18T10:04:45.074Z,28.84
2018-08-18T10:07:13.948Z,28.74
2018-08-18T10:09:42.779Z,31.35
2018-08-18T10:12:11.636Z,31.85
2018-08-18T10:14:40.495Z,32.33
2018-08-18T10:17:09.412Z,31.48
2018-08-18T10:19:38.263Z,31.68
2018-08-18T10:22:07.118Z,33.79
2018-08-18T10:24:35.974Z,33.55
2018-08-18T10:27:05.372Z,35.71
2018-08-18T10:29:34.288Z,37.11
2018-08-18T10:32:03.094Z,39.13
2018-08-18T10:34:33.157Z,40.03
2018-08-18T10:37:05.854Z,41.02
2018-08-18T10:39:35.492Z,39.06
2018-08-18T10:42:15.927Z,38.84
2018-08-18T10:45:01.776Z,39.75
2018-08-18T10:47:30.715Z,40.42
2018-08-18T10:50:50.685Z,41.52
2018-08-18T10:53:19.522Z,40.07
2018-08-18T10:55:48.387Z,40.35
2018-08-18T10:58:54.615Z,37.61
2018-08-18T11:01:23.432Z,36.81
2018-08-18T11:03:52.949Z,35.90
2018-08-18T11:06:26.497Z,33.76
2018-08-18T11:08:55.340Z,33.45
2018-08-18T11:11:24.179Z,35.26
2018-08-18T11:13:53.023Z,36.87
2018-08-18T11:16:21.876Z,39.18
2018-08-18T11:18:50.726Z,40.64
2018-08-18T11:21:24.472Z,41.01
2018-08-18T11:24:05.610Z,41.18
2018-08-18T11:26:35.503Z,41.54
2018-08-18T11:29:19.113Z,41.75
2018-08-18T11:31:47.974Z,42.23
2018-08-18T11:34:18.334Z,42.14
2018-08-18T11:37:06.484Z,43.04
2018-08-18T11:39:35.384Z,45.06
2018-08-18T11:42:04.315Z,43.50
2018-08-18T11:44:33.123Z,43.86
2018-08-18T11:47:02.811Z,44.00
2018-08-18T11:49:31.647Z,42.54
2018-08-18T11:52:00.557Z,41.24
2018-08-18T11:54:29.398Z,42.70
2018-08-18T11:57:00.679Z,41.86
2018-08-18T11:59:29.550Z,41.83
2018-08-18T12:01:58.531Z,41.86
2018-08-18T12:04:27.277Z,42.21
2018-08-18T12:06:59.629Z,42.38
2018-08-18T12:09:28.922Z,42.90
2018-08-18T12:11:57.813Z,42.05
2018-08-18T12:14:26.673Z,43.76
2018-08-18T12:16:55.536Z,42.94
2018-08-18T12:19:24.404Z,42.29
2018-08-18T12:21:54.709Z,42.92
2018-08-18T12:24:23.609Z,41.90
2018-08-18T12:27:12.842Z,43.24
2018-08-18T12:29:41.824Z,42.17
2018-08-18T12:32:29.076Z,42.90
2018-08-18T12:34:58.672Z,42.90
2018-08-18T12:37:28.301Z,42.16
2018-08-18T12:39:58.411Z,41.47
2018-08-18T12:42:28.621Z,42.19
2018-08-18T12:44:57.924Z,41.35
2018-08-18T12:47:26.763Z,41.06
2018-08-18T12:49:55.711Z,42.00
2018-08-18T12:52:24.511Z,42.00
2018-08-18T12:54:53.387Z,40.02
2018-08-18T12:57:41.216Z,40.96
2018-08-18T13:00:10.086Z,41.63
2018-08-18T13:02:43.700Z,41.83
2018-08-18T13:05:12.564Z,42.86
2018-08-18T13:07:44.990Z,43.01
2018-08-18T13:10:28.508Z,43.24
2018-08-18T13:12:57.926Z,42.49
2018-08-18T13:15:26.820Z,42.31
2018-08-18T13:17:55.878Z,42.51
2018-08-18T13:20:25.805Z,43.20
2018-08-18T13:22:54.681Z,44.25
2018-08-18T13:25:23.528Z,44.05
2018-08-18T13:27:53.090Z,43.96
2018-08-18T13:30:22.740Z,44.31
2018-08-18T13:32:55.061Z,43.43
2018-08-18T13:35:23.921Z,43.95
2018-08-18T13:37:53.290Z,43.15
2018-08-18T13:40:26.867Z,43.19
2018-08-18T13:42:55.711Z,43.22
2018-08-18T13:45:44.701Z,43.97
2018-08-18T13:48:13.581Z,44.66
2018-08-18T13:50:42.467Z,45.74
2018-08-18T13:53:11.294Z,45.45
2018-08-18T13:55:41.495Z,44.68
2018-08-18T13:58:11.862Z,45.65
2018-08-18T14:00:40.713Z,44.66
2018-08-18T14:03:24.448Z,45.12
2018-08-18T14:05:54.188Z,45.07
2018-08-18T14:08:23.043Z,45.70
2018-08-18T14:10:51.932Z,46.15
2018-08-18T14:13:20.801Z,46.16
2018-08-18T14:15:58.905Z,46.44
2018-08-18T14:18:27.814Z,47.25
2018-08-18T14:21:09.021Z,47.45
2018-08-18T14:23:37.867Z,47.88
2018-08-18T14:26:06.763Z,48.35
2018-08-18T14:28:35.676Z,47.93
2018-08-18T14:31:04.489Z,48.20
2018-08-18T14:33:33.342Z,48.20
2018-08-18T14:36:20.348Z,48.35
2018-08-18T14:38:49.222Z,48.77
2018-08-18T14:41:39.826Z,48.49
2018-08-18T14:44:08.789Z,48.01
2018-08-18T14:46:37.799Z,49.07
2018-08-18T14:49:06.508Z,48.52
2018-08-18T14:51:35.387Z,48.41
2018-08-18T14:54:04.332Z,48.25
2018-08-18T14:56:33.117Z,47.00
2018-08-18T14:59:01.975Z,48.35
2018-08-18T15:01:30.862Z,47.51
2018-08-18T15:03:59.748Z,48.83
2018-08-18T15:06:28.635Z,49.16
2018-08-18T15:08:57.507Z,48.40
2018-08-18T15:11:26.370Z,49.90
2018-08-18T15:13:55.216Z,49.90
2018-08-18T15:16:24.103Z,49.69
2018-08-18T15:18:52.970Z,50.49
2018-08-18T15:21:21.821Z,50.63
2018-08-18T15:23:50.678Z,50.63
2018-08-18T15:26:19.549Z,50.77
2018-08-18T15:28:48.408Z,50.61
2018-08-18T15:31:17.251Z,51.33
2018-08-18T15:33:46.135Z,51.73
2018-08-18T15:36:33.590Z,51.63
2018-08-18T15:39:02.495Z,50.79
2018-08-18T15:41:31.344Z,51.29
2018-08-18T15:44:00.188Z,51.23
2018-08-18T15:46:29.027Z,51.10
2018-08-18T15:48:57.906Z,50.61
2018-08-18T15:51:26.747Z,50.81
2018-08-18T15:53:56.749Z,51.06
2018-08-18T15:56:26.570Z,51.41
2018-08-18T15:58:56.309Z,50.04
2018-08-18T16:01:29.160Z,51.25
2018-08-18T16:03:59.430Z,51.32
2018-08-18T16:06:28.316Z,51.55
2018-08-18T16:08:57.211Z,51.40
2018-08-18T16:11:26.115Z,52.10
2018-08-18T16:13:55.036Z,51.59
2018-08-18T16:16:23.820Z,51.81
2018-08-18T16:19:14.567Z,51.91
2018-08-18T16:21:43.449Z,52.13
2018-08-18T16:24:40.377Z,52.04
2018-08-18T16:27:09.222Z,52.08
2018-08-18T16:29:38.577Z,52.60
2018-08-18T16:32:24.803Z,52.58
2018-08-18T16:35:12.583Z,53.03
2018-08-18T16:37:43.488Z,52.90
2018-08-18T16:40:12.391Z,52.75
2018-08-18T16:42:41.264Z,51.97
2018-08-18T16:45:10.106Z,52.40
2018-08-18T16:47:47.132Z,52.42
2018-08-18T16:50:15.966Z,52.73
2018-08-18T16:52:44.868Z,52.95
2018-08-18T16:55:13.715Z,53.00
2018-08-18T16:57:42.580Z,52.92
2018-08-18T17:00:11.458Z,53.76
2018-08-18T17:02:40.320Z,53.97
2018-08-18T17:05:09.654Z,54.00
2018-08-18T17:07:42.340Z,54.05
2018-08-18T17:10:11.219Z,54.23
2018-08-18T17:12:40.082Z,54.18
2018-08-18T17:15:08.957Z,54.70
2018-08-18T17:17:37.828Z,54.64
2018-08-18T17:20:07.985Z,54.26
2018-08-18T17:22:36.865Z,52.94
2018-08-18T17:25:07.380Z,53.84
2018-08-18T17:27:36.272Z,54.12
2018-08-18T17:30:05.604Z,54.84
2018-08-18T17:32:34.428Z,54.62
2018-08-18T17:35:03.305Z,54.83
2018-08-18T17:37:32.165Z,54.82
2018-08-18T17:40:00.984Z,54.96
2018-08-18T17:42:29.890Z,55.12
2018-08-18T17:44:58.797Z,55.38
2018-08-18T17:47:27.653Z,55.50
2018-08-18T17:49:57.571Z,55.20
2018-08-18T17:52:27.413Z,55.24
2018-08-18T17:55:17.945Z,55.08
2018-08-18T17:57:46.838Z,54.76
2018-08-18T18:00:19.870Z,55.22
2018-08-18T18:02:58.819Z,55.19
2018-08-18T18:05:32.198Z,55.24
2018-08-18T18:08:05.526Z,55.19
2018-08-18T18:10:35.552Z,55.53
2018-08-18T18:13:28.352Z,55.39
2018-08-18T18:15:57.214Z,54.73
2018-08-18T18:18:32.465Z,55.61
2018-08-18T18:21:01.318Z,55.48
2018-08-18T18:23:30.152Z,55.67
2018-08-18T18:25:59.005Z,55.84
2018-08-18T18:28:27.884Z,56.01
2018-08-18T18:30:56.741Z,54.93
2018-08-18T18:33:25.657Z,56.17
2018-08-18T18:35:54.455Z,56.55
2018-08-18T18:38:23.338Z,56.47
2018-08-18T18:40:52.226Z,56.87
2018-08-18T18:43:21.083Z,55.99
2018-08-18T18:45:50.050Z,56.67
2018-08-18T18:48:18.833Z,56.72
2018-08-18T18:50:49.096Z,56.99
2018-08-18T18:53:17.963Z,57.31
2018-08-18T18:55:55.764Z,57.91
2018-08-18T18:58:24.667Z,57.86
2018-08-18T19:01:04.460Z,58.24
2018-08-18T19:03:33.286Z,58.27
2018-08-18T19:06:02.167Z,58.74
2018-08-18T19:08:31.013Z,58.93
2018-08-18T19:11:03.093Z,59.23
2018-08-18T19:13:32.000Z,59.03
2018-08-18T19:16:00.901Z,59.33
2018-08-18T19:18:29.748Z,58.78
2018-08-18T19:20:58.617Z,59.67
2018-08-18T19:23:28.042Z,60.12
2018-08-18T19:25:56.910Z,60.56
2018-08-18T19:28:25.806Z,60.56
2018-08-18T19:30:54.616Z,61.33
2018-08-18T19:33:23.546Z,61.28
2018-08-18T19:35:53.293Z,61.25
2018-08-18T19:38:23.248Z,61.80
2018-08-18T19:40:53.009Z,61.77
2018-08-18T19:43:23.171Z,62.01
2018-08-18T19:45:52.540Z,62.56
2018-08-18T19:48:25.854Z,62.82
2018-08-18T19:51:04.444Z,63.22
2018-08-18T19:53:34.706Z,63.26
2018-08-18T19:56:04.108Z,63.70
2018-08-18T19:58:32.967Z,63.93
2018-08-18T20:01:01.816Z,64.17
2018-08-18T20:03:30.707Z,64.17
2018-08-18T20:06:00.528Z,64.36
2018-08-18T20:08:29.440Z,64.72
2018-08-18T20:11:01.646Z,64.97
2018-08-18T20:13:31.828Z,65.27
2018-08-18T20:16:04.126Z,65.33
2018-08-18T20:18:33.491Z,65.49
2018-08-18T20:21:02.344Z,65.40
2018-08-18T20:23:31.259Z,65.69
2018-08-18T20:26:01.357Z,65.62
2018-08-18T20:28:30.194Z,66.01
2018-08-18T20:30:59.051Z,66.22
2018-08-18T20:33:27.939Z,65.95
2018-08-18T20:35:56.821Z,66.16
2018-08-18T20:38:30.994Z,65.91
2018-08-18T20:40:59.856Z,65.92
2018-08-18T20:43:28.737Z,65.73
2018-08-18T20:45:57.645Z,65.87
2018-08-18T20:48:26.523Z,66.01
2018-08-18T20:50:55.361Z,66.06
2018-08-18T20:53:24.209Z,64.81
2018-08-18T20:55:58.062Z,65.10
2018-08-18T20:58:27.475Z,64.79
2018-08-18T21:00:56.345Z,65.39
2018-08-18T21:03:50.470Z,65.19
2018-08-18T21:06:19.867Z,65.57
2018-08-18T21:08:48.817Z,64.80
2018-08-18T21:11:17.933Z,64.39
2018-08-18T21:13:50.801Z,65.42
2018-08-18T21:16:20.493Z,65.79
2018-08-18T21:18:49.332Z,66.26
2018-08-18T21:21:30.316Z,66.20
2018-08-18T21:23:59.119Z,66.26
2018-08-18T21:26:28.050Z,66.37
2018-08-18T21:28:57.776Z,65.89
2018-08-18T21:31:38.698Z,65.99
2018-08-18T21:34:08.037Z,66.27
2018-08-18T21:36:36.991Z,66.53
2018-08-18T21:39:08.192Z,66.85
2018-08-18T21:41:38.248Z,66.74
2018-08-18T21:44:08.713Z,66.98
2018-08-18T21:46:37.930Z,67.19
2018-08-18T21:49:06.841Z,67.94
2018-08-18T21:51:35.637Z,68.01
2018-08-18T21:54:04.535Z,68.01
2018-08-18T21:56:40.758Z,68.00
2018-08-18T21:59:10.909Z,68.19
2018-08-18T22:01:39.773Z,67.93
2018-08-18T22:04:09.216Z,67.84
2018-08-18T22:06:38.074Z,67.99
2018-08-18T22:09:24.461Z,68.00
2018-08-18T22:11:53.326Z,67.43
2018-08-18T22:14:22.231Z,67.35
2018-08-18T22:17:00.080Z,67.17
2018-08-18T22:19:29.635Z,66.90
2018-08-18T22:21:58.493Z,67.12
2018-08-18T22:24:27.357Z,67.23
2018-08-18T22:26:56.211Z,66.83
2018-08-18T22:29:26.030Z,66.61
2018-08-18T22:31:54.889Z,66.44
2018-08-18T22:34:23.750Z,66.49
2018-08-18T22:36:56.013Z,66.35
2018-08-18T22:39:24.908Z,66.51
2018-08-18T22:41:53.774Z,66.75
2018-08-18T22:44:22.665Z,66.95
2018-08-18T22:46:51.539Z,67.04
2018-08-18T22:49:20.439Z,66.71
2018-08-18T22:51:49.295Z,66.73
2018-08-18T22:54:18.146Z,66.73
2018-08-18T22:57:00.739Z,66.49
2018-08-18T22:59:30.204Z,66.75
2018-08-18T23:01:59.048Z,66.86
2018-08-18T23:04:35.879Z,66.73
2018-08-18T23:07:05.506Z,66.55
2018-08-18T23:09:34.436Z,66.43
2018-08-18T23:12:05.045Z,66.88
2018-08-18T23:14:43.341Z,67.20
2018-08-18T23:17:12.228Z,67.23
2018-08-18T23:19:41.114Z,67.76
2018-08-18T23:22:52.723Z,67.69
2018-08-18T23:25:22.455Z,67.67
2018-08-18T23:27:51.403Z,68.06
2018-08-18T23:30:23.921Z,67.97
2018-08-18T23:32:52.774Z,68.46
2018-08-18T23:35:24.339Z,68.52
2018-08-18T23:37:53.376Z,68.51
2018-08-18T23:40:22.225Z,68.63
2018-08-18T23:42:51.091Z,68.73
2018-08-18T23:45:19.972Z,68.36
2018-08-18T23:48:09.399Z,68.79
2018-08-18T23:50:39.187Z,68.92
2018-08-18T23:53:12.205Z,69.02
2018-08-18T23:56:00.820Z,69.11
2018-08-18T23:58:30.456Z,69.20
